sensor_id;sensor_type;location;lat;lon;timestamp;temperature;humidity
1594;DHT22;790;47.000;16.084;2023-12-14T00:02:57;4.60;99.90
1594;DHT22;790;47.000;16.084;2023-12-14T00:09:22;4.80;99.90
1594;DHT22;790;47.000;16.084;2023-12-14T00:15:45;4.70;99.90
1594;DHT22;790;47.000;16.084;2023-12-14T00:22:10;4.70;99.90
1594;DHT22;790;47.000;16.084;2023-12-14T00:28:34;4.70;99.90
1594;DHT22;790;47.000;16.084;2023-12-14T00:34:56;4.70;99.90
1594;DHT22;790;47.000;16.084;2023-12-14T00:41:18;4.80;99.90
1594;DHT22;790;47.000;16.084;2023-12-14T00:52:37;4.80;99.90
1594;DHT22;790;47.000;16.084;2023-12-14T00:58:59;4.80;99.90
1594;DHT22;790;47.000;16.084;2023-12-14T01:05:22;4.80;99.90
1594;DHT22;790;47.000;16.084;2023-12-14T01:11:46;4.80;99.90
1594;DHT22;790;47.000;16.084;2023-12-14T01:18:08;4.80;99.90
1594;DHT22;790;47.000;16.084;2023-12-14T01:24:30;4.80;99.90
1594;DHT22;790;47.000;16.084;2023-12-14T01:30:54;4.80;99.90
1594;DHT22;790;47.000;16.084;2023-12-14T01:37:17;4.70;99.90
1594;DHT22;790;47.000;16.084;2023-12-14T01:43:40;4.90;99.90
1594;DHT22;790;47.000;16.084;2023-12-14T01:54:58;4.90;99.90
1594;DHT22;790;47.000;16.084;2023-12-14T02:01:28;4.90;99.90
1594;DHT22;790;47.000;16.084;2023-12-14T02:07:56;4.80;99.90
1594;DHT22;790;47.000;16.084;2023-12-14T02:14:22;4.80;99.90
1594;DHT22;790;47.000;16.084;2023-12-14T02:20:45;4.90;99.90
1594;DHT22;790;47.000;16.084;2023-12-14T02:27:09;4.90;99.90
1594;DHT22;790;47.000;16.084;2023-12-14T02:33:31;4.80;99.90
1594;DHT22;790;47.000;16.084;2023-12-14T02:39:53;4.80;99.90
1594;DHT22;790;47.000;16.084;2023-12-14T02:46:17;4.80;99.90
1594;DHT22;790;47.000;16.084;2023-12-14T02:57:34;4.80;99.90
1594;DHT22;790;47.000;16.084;2023-12-14T03:03:59;4.90;99.90
1594;DHT22;790;47.000;16.084;2023-12-14T03:10:22;4.90;99.90
1594;DHT22;790;47.000;16.084;2023-12-14T03:16:45;4.90;99.90
1594;DHT22;790;47.000;16.084;2023-12-14T03:23:10;4.90;99.90
1594;DHT22;790;47.000;16.084;2023-12-14T03:29:32;4.90;99.90
1594;DHT22;790;47.000;16.084;2023-12-14T03:35:55;5.10;99.90
1594;DHT22;790;47.000;16.084;2023-12-14T03:42:18;5.70;99.90
1594;DHT22;790;47.000;16.084;2023-12-14T03:48:42;6.10;99.90
1594;DHT22;790;47.000;16.084;2023-12-14T03:59:41;6.40;99.90
1594;DHT22;790;47.000;16.084;2023-12-14T04:06:04;6.60;99.90
1594;DHT22;790;47.000;16.084;2023-12-14T04:12:26;6.60;99.90
1594;DHT22;790;47.000;16.084;2023-12-14T04:18:59;6.60;99.90
1594;DHT22;790;47.000;16.084;2023-12-14T04:25:22;6.60;99.90
1594;DHT22;790;47.000;16.084;2023-12-14T04:31:45;6.50;99.90
1594;DHT22;790;47.000;16.084;2023-12-14T04:38:09;6.30;99.90
1594;DHT22;790;47.000;16.084;2023-12-14T04:44:31;6.10;99.90
1594;DHT22;790;47.000;16.084;2023-12-14T04:50:53;6.00;99.90
1594;DHT22;790;47.000;16.084;2023-12-14T05:02:02;5.90;99.90
1594;DHT22;790;47.000;16.084;2023-12-14T05:08:24;5.80;99.90
1594;DHT22;790;47.000;16.084;2023-12-14T05:14:47;5.80;99.90
1594;DHT22;790;47.000;16.084;2023-12-14T05:21:16;5.80;99.90
1594;DHT22;790;47.000;16.084;2023-12-14T05:27:39;5.70;99.90
1594;DHT22;790;47.000;16.084;2023-12-14T05:34:01;5.70;99.90
1594;DHT22;790;47.000;16.084;2023-12-14T05:40:25;5.60;99.90
1594;DHT22;790;47.000;16.084;2023-12-14T05:46:47;5.60;99.90
1594;DHT22;790;47.000;16.084;2023-12-14T05:53:09;5.50;99.90
1594;DHT22;790;47.000;16.084;2023-12-14T06:04:19;5.50;99.90
1594;DHT22;790;47.000;16.084;2023-12-14T06:10:41;5.50;99.90
1594;DHT22;790;47.000;16.084;2023-12-14T06:17:04;5.50;99.90
1594;DHT22;790;47.000;16.084;2023-12-14T06:23:28;5.40;99.90
1594;DHT22;790;47.000;16.084;2023-12-14T06:29:50;5.40;99.90
1594;DHT22;790;47.000;16.084;2023-12-14T06:36:13;5.40;99.90
1594;DHT22;790;47.000;16.084;2023-12-14T06:42:41;5.30;99.90
1594;DHT22;790;47.000;16.084;2023-12-14T06:49:03;5.30;99.90
1594;DHT22;790;47.000;16.084;2023-12-14T06:55:26;5.30;99.90
1594;DHT22;790;47.000;16.084;2023-12-14T07:06:35;5.40;99.90
1594;DHT22;790;47.000;16.084;2023-12-14T07:12:57;5.40;99.90
1594;DHT22;790;47.000;16.084;2023-12-14T07:19:20;5.40;99.90
1594;DHT22;790;47.000;16.084;2023-12-14T07:25:44;5.40;99.90
1594;DHT22;790;47.000;16.084;2023-12-14T07:32:06;5.50;99.90
1594;DHT22;790;47.000;16.084;2023-12-14T07:38:28;5.40;99.90
1594;DHT22;790;47.000;16.084;2023-12-14T07:44:52;5.50;99.90
1594;DHT22;790;47.000;16.084;2023-12-14T07:51:14;5.70;99.90
1594;DHT22;790;47.000;16.084;2023-12-14T07:57:37;5.70;99.90
1594;DHT22;790;47.000;16.084;2023-12-14T08:08:47;5.80;99.90
1594;DHT22;790;47.000;16.084;2023-12-14T08:15:09;5.80;99.90
1594;DHT22;790;47.000;16.084;2023-12-14T08:21:33;6.00;99.90
1594;DHT22;790;47.000;16.084;2023-12-14T08:27:57;6.10;99.90
1594;DHT22;790;47.000;16.084;2023-12-14T08:34:19;6.20;99.90
1594;DHT22;790;47.000;16.084;2023-12-14T08:40:41;6.20;99.90
1594;DHT22;790;47.000;16.084;2023-12-14T08:47:06;6.30;99.90
1594;DHT22;790;47.000;16.084;2023-12-14T08:53:29;6.30;99.90
1594;DHT22;790;47.000;16.084;2023-12-14T08:59:51;6.40;99.90
1594;DHT22;790;47.000;16.084;2023-12-14T09:11:00;6.80;99.90
1594;DHT22;790;47.000;16.084;2023-12-14T09:17:22;6.90;99.90
1594;DHT22;790;47.000;16.084;2023-12-14T09:23:44;7.00;99.90
1594;DHT22;790;47.000;16.084;2023-12-14T09:30:10;7.10;99.90
1594;DHT22;790;47.000;16.084;2023-12-14T09:36:34;7.10;99.90
1594;DHT22;790;47.000;16.084;2023-12-14T09:42:56;7.10;99.90
1594;DHT22;790;47.000;16.084;2023-12-14T09:49:21;7.50;99.90
1594;DHT22;790;47.000;16.084;2023-12-14T09:55:45;7.70;99.90
1594;DHT22;790;47.000;16.084;2023-12-14T10:02:09;7.50;99.90
1594;DHT22;790;47.000;16.084;2023-12-14T10:13:18;7.70;99.90
1594;DHT22;790;47.000;16.084;2023-12-14T10:19:43;8.00;99.90
1594;DHT22;790;47.000;16.084;2023-12-14T10:26:06;8.40;99.90
1594;DHT22;790;47.000;16.084;2023-12-14T10:32:30;8.60;99.90
1594;DHT22;790;47.000;16.084;2023-12-14T10:38:53;9.00;99.90
1594;DHT22;790;47.000;16.084;2023-12-14T10:45:16;9.50;99.90
1594;DHT22;790;47.000;16.084;2023-12-14T10:51:42;9.70;99.90
1594;DHT22;790;47.000;16.084;2023-12-14T10:58:05;9.80;99.90
1594;DHT22;790;47.000;16.084;2023-12-14T11:04:27;9.80;99.90
1594;DHT22;790;47.000;16.084;2023-12-14T11:15:36;9.90;99.90
1594;DHT22;790;47.000;16.084;2023-12-14T11:22:13;9.90;99.90
1594;DHT22;790;47.000;16.084;2023-12-14T11:28:44;9.90;99.90
1594;DHT22;790;47.000;16.084;2023-12-14T11:35:08;9.90;99.90
1594;DHT22;790;47.000;16.084;2023-12-14T11:41:33;9.90;99.90
1594;DHT22;790;47.000;16.084;2023-12-14T11:47:56;9.80;99.90
1594;DHT22;790;47.000;16.084;2023-12-14T11:54:20;9.60;99.90
1594;DHT22;790;47.000;16.084;2023-12-14T12:00:42;9.40;99.90
1594;DHT22;790;47.000;16.084;2023-12-14T12:07:06;9.40;99.90
1594;DHT22;790;47.000;16.084;2023-12-14T12:18:25;9.00;99.90
1594;DHT22;790;47.000;16.084;2023-12-14T12:24:47;8.80;99.90
1594;DHT22;790;47.000;16.084;2023-12-14T12:31:09;8.70;99.90
1594;DHT22;790;47.000;16.084;2023-12-14T12:37:34;8.70;99.90
1594;DHT22;790;47.000;16.084;2023-12-14T12:43:56;8.50;99.90
1594;DHT22;790;47.000;16.084;2023-12-14T12:50:19;8.30;99.90
1594;DHT22;790;47.000;16.084;2023-12-14T12:56:44;8.20;99.90
1594;DHT22;790;47.000;16.084;2023-12-14T13:03:06;8.10;99.90
1594;DHT22;790;47.000;16.084;2023-12-14T13:09:29;8.10;99.90
1594;DHT22;790;47.000;16.084;2023-12-14T13:20:48;8.10;99.90
1594;DHT22;790;47.000;16.084;2023-12-14T13:27:10;7.90;99.90
1594;DHT22;790;47.000;16.084;2023-12-14T13:33:52;7.80;99.90
1594;DHT22;790;47.000;16.084;2023-12-14T13:40:16;7.80;99.90
1594;DHT22;790;47.000;16.084;2023-12-14T13:46:39;7.60;99.90
1594;DHT22;790;47.000;16.084;2023-12-14T13:53:01;7.50;99.90
1594;DHT22;790;47.000;16.084;2023-12-14T13:59:37;7.50;99.90
1594;DHT22;790;47.000;16.084;2023-12-14T14:06:00;7.50;99.90
1594;DHT22;790;47.000;16.084;2023-12-14T14:12:23;7.40;99.90
1594;DHT22;790;47.000;16.084;2023-12-14T14:23:43;7.40;99.90
1594;DHT22;790;47.000;16.084;2023-12-14T14:30:06;7.40;99.90
1594;DHT22;790;47.000;16.084;2023-12-14T14:36:28;7.40;99.90
1594;DHT22;790;47.000;16.084;2023-12-14T14:42:53;7.30;99.90
1594;DHT22;790;47.000;16.084;2023-12-14T14:49:15;7.30;99.90
1594;DHT22;790;47.000;16.084;2023-12-14T14:55:38;7.20;99.90
1594;DHT22;790;47.000;16.084;2023-12-14T15:02:03;7.20;99.90
1594;DHT22;790;47.000;16.084;2023-12-14T15:08:25;7.10;99.90
1594;DHT22;790;47.000;16.084;2023-12-14T15:14:48;7.10;99.90
1594;DHT22;790;47.000;16.084;2023-12-14T15:26:06;7.10;99.90
1594;DHT22;790;47.000;16.084;2023-12-14T15:32:29;7.10;99.90
1594;DHT22;790;47.000;16.084;2023-12-14T15:38:51;6.90;99.90
1594;DHT22;790;47.000;16.084;2023-12-14T15:45:15;6.80;99.90
1594;DHT22;790;47.000;16.084;2023-12-14T15:51:39;6.70;99.90
1594;DHT22;790;47.000;16.084;2023-12-14T15:58:03;6.60;99.90
1594;DHT22;790;47.000;16.084;2023-12-14T16:04:26;6.60;99.90
1594;DHT22;790;47.000;16.084;2023-12-14T16:10:48;6.60;99.90
1594;DHT22;790;47.000;16.084;2023-12-14T16:17:13;6.60;99.90
1594;DHT22;790;47.000;16.084;2023-12-14T16:28:32;6.50;99.90
1594;DHT22;790;47.000;16.084;2023-12-14T16:34:54;6.60;99.90
1594;DHT22;790;47.000;16.084;2023-12-14T16:41:20;6.60;99.90
1594;DHT22;790;47.000;16.084;2023-12-14T16:47:44;6.50;99.90
1594;DHT22;790;47.000;16.084;2023-12-14T16:54:06;6.60;99.90
1594;DHT22;790;47.000;16.084;2023-12-14T17:00:28;6.60;99.90
1594;DHT22;790;47.000;16.084;2023-12-14T17:06:52;6.50;99.90
1594;DHT22;790;47.000;16.084;2023-12-14T17:13:14;6.40;99.90
1594;DHT22;790;47.000;16.084;2023-12-14T17:19:37;6.50;99.90
1594;DHT22;790;47.000;16.084;2023-12-14T17:30:56;6.60;99.90
1594;DHT22;790;47.000;16.084;2023-12-14T17:37:18;6.50;99.90
1594;DHT22;790;47.000;16.084;2023-12-14T17:43:41;6.40;99.90
1594;DHT22;790;47.000;16.084;2023-12-14T17:50:06;6.40;99.90
1594;DHT22;790;47.000;16.084;2023-12-14T17:56:29;6.30;99.90
1594;DHT22;790;47.000;16.084;2023-12-14T18:02:51;6.20;99.90
1594;DHT22;790;47.000;16.084;2023-12-14T18:09:15;6.00;99.90
1594;DHT22;790;47.000;16.084;2023-12-14T18:15:39;6.00;99.90
1594;DHT22;790;47.000;16.084;2023-12-14T18:22:01;6.00;99.90
1594;DHT22;790;47.000;16.084;2023-12-14T18:33:19;5.60;99.90
1594;DHT22;790;47.000;16.084;2023-12-14T18:39:42;5.40;99.90
1594;DHT22;790;47.000;16.084;2023-12-14T18:46:05;5.10;99.90
1594;DHT22;790;47.000;16.084;2023-12-14T18:52:30;5.10;99.90
1594;DHT22;790;47.000;16.084;2023-12-14T18:58:54;5.10;99.90
1594;DHT22;790;47.000;16.084;2023-12-14T19:05:18;4.90;99.90
1594;DHT22;790;47.000;16.084;2023-12-14T19:11:46;4.90;99.90
1594;DHT22;790;47.000;16.084;2023-12-14T19:18:10;5.00;99.90
1594;DHT22;790;47.000;16.084;2023-12-14T19:24:33;5.00;99.90
1594;DHT22;790;47.000;16.084;2023-12-14T19:35:53;4.60;99.90
1594;DHT22;790;47.000;16.084;2023-12-14T19:42:18;4.60;99.90
1594;DHT22;790;47.000;16.084;2023-12-14T19:48:42;4.50;99.90
1594;DHT22;790;47.000;16.084;2023-12-14T19:55:08;4.30;99.90
1594;DHT22;790;47.000;16.084;2023-12-14T20:01:32;4.10;99.90
1594;DHT22;790;47.000;16.084;2023-12-14T20:07:54;4.30;99.90
1594;DHT22;790;47.000;16.084;2023-12-14T20:14:19;4.20;99.90
1594;DHT22;790;47.000;16.084;2023-12-14T20:20:41;4.10;99.90
1594;DHT22;790;47.000;16.084;2023-12-14T20:27:04;4.20;99.90
1594;DHT22;790;47.000;16.084;2023-12-14T20:38:22;4.10;99.90
1594;DHT22;790;47.000;16.084;2023-12-14T20:44:45;4.00;99.90
1594;DHT22;790;47.000;16.084;2023-12-14T20:51:07;3.90;99.90
1594;DHT22;790;47.000;16.084;2023-12-14T20:57:31;3.80;99.90
1594;DHT22;790;47.000;16.084;2023-12-14T21:03:53;3.80;99.90
1594;DHT22;790;47.000;16.084;2023-12-14T21:10:16;3.80;99.90
1594;DHT22;790;47.000;16.084;2023-12-14T21:16:39;3.70;99.90
1594;DHT22;790;47.000;16.084;2023-12-14T21:23:01;3.60;99.90
1594;DHT22;790;47.000;16.084;2023-12-14T21:29:24;3.60;99.90
1594;DHT22;790;47.000;16.084;2023-12-14T21:40:31;3.50;99.90
1594;DHT22;790;47.000;16.084;2023-12-14T21:46:54;3.40;99.90
1594;DHT22;790;47.000;16.084;2023-12-14T21:53:16;3.50;99.90
1594;DHT22;790;47.000;16.084;2023-12-14T22:00:04;3.40;99.90
1594;DHT22;790;47.000;16.084;2023-12-14T22:06:36;3.60;99.90
1594;DHT22;790;47.000;16.084;2023-12-14T22:12:59;3.80;99.90
1594;DHT22;790;47.000;16.084;2023-12-14T22:19:23;3.60;99.90
1594;DHT22;790;47.000;16.084;2023-12-14T22:25:45;3.70;99.90
1594;DHT22;790;47.000;16.084;2023-12-14T22:32:07;3.60;99.90
1594;DHT22;790;47.000;16.084;2023-12-14T22:43:06;3.60;99.90
1594;DHT22;790;47.000;16.084;2023-12-14T22:49:39;3.60;99.90
1594;DHT22;790;47.000;16.084;2023-12-14T22:56:02;3.70;99.90
1594;DHT22;790;47.000;16.084;2023-12-14T23:02:25;3.50;99.90
1594;DHT22;790;47.000;16.084;2023-12-14T23:08:48;3.40;99.90
1594;DHT22;790;47.000;16.084;2023-12-14T23:15:10;3.20;99.90
1594;DHT22;790;47.000;16.084;2023-12-14T23:21:34;3.20;99.90
1594;DHT22;790;47.000;16.084;2023-12-14T23:27:55;3.30;99.90
1594;DHT22;790;47.000;16.084;2023-12-14T23:34:17;3.40;99.90
1594;DHT22;790;47.000;16.084;2023-12-14T23:45:15;3.00;99.90
1594;DHT22;790;47.000;16.084;2023-12-14T23:51:37;3.00;99.90
1594;DHT22;790;47.000;16.084;2023-12-14T23:57:59;3.10;99.90
